sensor_id;sensor_type;location;lat;lon;timestamp;temperature;humidity
8778;DHT22;4425;50.872;4.712;2023-08-31T00:01:21;12.60;99.90
8778;DHT22;4425;50.872;4.712;2023-08-31T00:03:48;12.60;99.90
8778;DHT22;4425;50.872;4.712;2023-08-31T00:06:15;12.70;99.90
8778;DHT22;4425;50.872;4.712;2023-08-31T00:08:42;12.60;99.90
8778;DHT22;4425;50.872;4.712;2023-08-31T00:11:09;12.60;99.90
8778;DHT22;4425;50.872;4.712;2023-08-31T00:13:37;12.50;99.90
8778;DHT22;4425;50.872;4.712;2023-08-31T00:16:04;12.60;99.90
8778;DHT22;4425;50.872;4.712;2023-08-31T00:18:31;12.50;99.90
8778;DHT22;4425;50.872;4.712;2023-08-31T00:20:59;12.50;99.90
8778;DHT22;4425;50.872;4.712;2023-08-31T00:23:26;12.50;99.90
8778;DHT22;4425;50.872;4.712;2023-08-31T00:25:53;12.50;99.90
8778;DHT22;4425;50.872;4.712;2023-08-31T00:28:22;12.50;99.90
8778;DHT22;4425;50.872;4.712;2023-08-31T00:30:54;12.50;99.90
8778;DHT22;4425;50.872;4.712;2023-08-31T00:33:21;12.50;99.90
8778;DHT22;4425;50.872;4.712;2023-08-31T00:35:48;12.40;99.90
8778;DHT22;4425;50.872;4.712;2023-08-31T00:38:15;12.50;99.90
8778;DHT22;4425;50.872;4.712;2023-08-31T00:40:43;12.50;99.90
8778;DHT22;4425;50.872;4.712;2023-08-31T00:43:11;12.40;99.90
8778;DHT22;4425;50.872;4.712;2023-08-31T00:45:39;12.40;99.90
8778;DHT22;4425;50.872;4.712;2023-08-31T00:48:07;12.50;99.90
8778;DHT22;4425;50.872;4.712;2023-08-31T00:50:34;12.50;99.90
8778;DHT22;4425;50.872;4.712;2023-08-31T00:53:02;12.50;99.90
8778;DHT22;4425;50.872;4.712;2023-08-31T00:55:31;12.50;99.90
8778;DHT22;4425;50.872;4.712;2023-08-31T00:57:59;12.50;99.90
8778;DHT22;4425;50.872;4.712;2023-08-31T01:00:33;12.60;99.90
8778;DHT22;4425;50.872;4.712;2023-08-31T01:03:09;12.50;99.90
8778;DHT22;4425;50.872;4.712;2023-08-31T01:05:44;12.50;99.90
8778;DHT22;4425;50.872;4.712;2023-08-31T01:08:19;12.50;99.90
8778;DHT22;4425;50.872;4.712;2023-08-31T01:10:58;12.50;99.90
8778;DHT22;4425;50.872;4.712;2023-08-31T01:13:30;12.50;99.90
8778;DHT22;4425;50.872;4.712;2023-08-31T01:16:00;12.50;99.90
8778;DHT22;4425;50.872;4.712;2023-08-31T01:18:32;12.40;99.90
8778;DHT22;4425;50.872;4.712;2023-08-31T01:21:06;12.40;99.90
8778;DHT22;4425;50.872;4.712;2023-08-31T01:23:50;12.50;99.90
8778;DHT22;4425;50.872;4.712;2023-08-31T01:26:19;12.40;99.90
8778;DHT22;4425;50.872;4.712;2023-08-31T01:28:46;12.40;99.90
8778;DHT22;4425;50.872;4.712;2023-08-31T01:31:13;12.50;99.90
8778;DHT22;4425;50.872;4.712;2023-08-31T01:33:40;12.50;99.90
8778;DHT22;4425;50.872;4.712;2023-08-31T01:36:12;12.40;99.90
8778;DHT22;4425;50.872;4.712;2023-08-31T01:38:42;12.40;99.90
8778;DHT22;4425;50.872;4.712;2023-08-31T01:41:17;12.40;99.90
8778;DHT22;4425;50.872;4.712;2023-08-31T01:43:44;12.40;99.90
8778;DHT22;4425;50.872;4.712;2023-08-31T01:46:14;12.50;99.90
8778;DHT22;4425;50.872;4.712;2023-08-31T01:48:42;12.40;99.90
8778;DHT22;4425;50.872;4.712;2023-08-31T01:51:09;12.40;99.90
8778;DHT22;4425;50.872;4.712;2023-08-31T01:53:36;12.40;99.90
8778;DHT22;4425;50.872;4.712;2023-08-31T01:56:04;12.30;99.90
8778;DHT22;4425;50.872;4.712;2023-08-31T01:58:33;12.30;99.90
8778;DHT22;4425;50.872;4.712;2023-08-31T02:00:59;12.30;99.90
8778;DHT22;4425;50.872;4.712;2023-08-31T02:03:26;12.30;99.90
8778;DHT22;4425;50.872;4.712;2023-08-31T02:05:53;12.30;99.90
8778;DHT22;4425;50.872;4.712;2023-08-31T02:08:20;12.20;99.90
8778;DHT22;4425;50.872;4.712;2023-08-31T02:10:47;12.30;99.90
8778;DHT22;4425;50.872;4.712;2023-08-31T02:13:14;12.20;99.90
8778;DHT22;4425;50.872;4.712;2023-08-31T02:15:43;12.20;99.90
8778;DHT22;4425;50.872;4.712;2023-08-31T02:18:09;12.20;99.90
8778;DHT22;4425;50.872;4.712;2023-08-31T02:20:36;12.20;99.90
8778;DHT22;4425;50.872;4.712;2023-08-31T02:23:03;12.10;99.90
8778;DHT22;4425;50.872;4.712;2023-08-31T02:25:30;12.20;99.90
8778;DHT22;4425;50.872;4.712;2023-08-31T02:27:58;12.20;99.90
8778;DHT22;4425;50.872;4.712;2023-08-31T02:30:25;12.10;99.90
8778;DHT22;4425;50.872;4.712;2023-08-31T02:32:53;12.20;99.90
8778;DHT22;4425;50.872;4.712;2023-08-31T02:35:20;12.20;99.90
8778;DHT22;4425;50.872;4.712;2023-08-31T02:37:47;12.20;99.90
8778;DHT22;4425;50.872;4.712;2023-08-31T02:40:13;12.30;99.90
8778;DHT22;4425;50.872;4.712;2023-08-31T02:42:41;12.20;99.90
8778;DHT22;4425;50.872;4.712;2023-08-31T02:45:08;12.20;99.90
8778;DHT22;4425;50.872;4.712;2023-08-31T02:47:35;12.20;99.90
8778;DHT22;4425;50.872;4.712;2023-08-31T02:50:05;12.20;99.90
8778;DHT22;4425;50.872;4.712;2023-08-31T02:52:32;12.30;99.90
8778;DHT22;4425;50.872;4.712;2023-08-31T02:54:59;12.20;99.90
8778;DHT22;4425;50.872;4.712;2023-08-31T02:57:26;12.30;99.90
8778;DHT22;4425;50.872;4.712;2023-08-31T02:59:53;12.20;99.90
8778;DHT22;4425;50.872;4.712;2023-08-31T03:02:20;12.20;99.90
8778;DHT22;4425;50.872;4.712;2023-08-31T03:04:47;12.30;99.90
8778;DHT22;4425;50.872;4.712;2023-08-31T03:07:16;12.30;99.90
8778;DHT22;4425;50.872;4.712;2023-08-31T03:09:47;12.40;99.90
8778;DHT22;4425;50.872;4.712;2023-08-31T03:12:15;12.40;99.90
8778;DHT22;4425;50.872;4.712;2023-08-31T03:14:42;12.30;99.90
8778;DHT22;4425;50.872;4.712;2023-08-31T03:17:08;12.30;99.90
8778;DHT22;4425;50.872;4.712;2023-08-31T03:19:35;12.40;99.90
8778;DHT22;4425;50.872;4.712;2023-08-31T03:22:02;12.30;99.90
8778;DHT22;4425;50.872;4.712;2023-08-31T03:24:31;12.30;99.90
8778;DHT22;4425;50.872;4.712;2023-08-31T03:26:58;12.20;99.90
8778;DHT22;4425;50.872;4.712;2023-08-31T03:29:25;12.30;99.90
8778;DHT22;4425;50.872;4.712;2023-08-31T03:31:54;12.20;99.90
8778;DHT22;4425;50.872;4.712;2023-08-31T03:34:21;12.30;99.90
8778;DHT22;4425;50.872;4.712;2023-08-31T03:36:48;12.30;99.90
8778;DHT22;4425;50.872;4.712;2023-08-31T03:39:15;12.30;99.90
8778;DHT22;4425;50.872;4.712;2023-08-31T03:41:44;12.30;99.90
8778;DHT22;4425;50.872;4.712;2023-08-31T03:44:11;12.20;99.90
8778;DHT22;4425;50.872;4.712;2023-08-31T03:46:37;12.40;99.90
8778;DHT22;4425;50.872;4.712;2023-08-31T03:49:04;12.40;99.90
8778;DHT22;4425;50.872;4.712;2023-08-31T03:51:31;12.40;99.90
8778;DHT22;4425;50.872;4.712;2023-08-31T03:53:58;12.40;99.90
8778;DHT22;4425;50.872;4.712;2023-08-31T03:56:26;12.50;99.90
8778;DHT22;4425;50.872;4.712;2023-08-31T03:58:54;12.50;99.90
8778;DHT22;4425;50.872;4.712;2023-08-31T04:01:21;12.50;99.90
8778;DHT22;4425;50.872;4.712;2023-08-31T04:03:49;12.70;99.90
8778;DHT22;4425;50.872;4.712;2023-08-31T04:06:15;12.60;99.90
8778;DHT22;4425;50.872;4.712;2023-08-31T04:08:42;12.60;99.90
8778;DHT22;4425;50.872;4.712;2023-08-31T04:11:09;12.60;99.90
8778;DHT22;4425;50.872;4.712;2023-08-31T04:13:36;12.60;99.90
8778;DHT22;4425;50.872;4.712;2023-08-31T04:16:04;12.60;99.90
8778;DHT22;4425;50.872;4.712;2023-08-31T04:18:31;12.70;99.90
8778;DHT22;4425;50.872;4.712;2023-08-31T04:20:58;12.60;99.90
8778;DHT22;4425;50.872;4.712;2023-08-31T04:23:28;12.70;99.90
8778;DHT22;4425;50.872;4.712;2023-08-31T04:25:55;12.70;99.90
8778;DHT22;4425;50.872;4.712;2023-08-31T04:28:23;12.70;99.90
8778;DHT22;4425;50.872;4.712;2023-08-31T04:30:50;12.60;99.90
8778;DHT22;4425;50.872;4.712;2023-08-31T04:33:19;12.70;99.90
8778;DHT22;4425;50.872;4.712;2023-08-31T04:35:46;12.70;99.90
8778;DHT22;4425;50.872;4.712;2023-08-31T04:38:13;12.60;99.90
8778;DHT22;4425;50.872;4.712;2023-08-31T04:40:40;12.70;99.90
8778;DHT22;4425;50.872;4.712;2023-08-31T04:43:06;12.60;99.90
8778;DHT22;4425;50.872;4.712;2023-08-31T04:45:33;12.60;99.90
8778;DHT22;4425;50.872;4.712;2023-08-31T04:48:00;12.50;99.90
8778;DHT22;4425;50.872;4.712;2023-08-31T04:50:30;12.50;99.90
8778;DHT22;4425;50.872;4.712;2023-08-31T04:52:56;12.50;99.90
8778;DHT22;4425;50.872;4.712;2023-08-31T04:55:23;12.50;99.90
8778;DHT22;4425;50.872;4.712;2023-08-31T04:57:50;12.40;99.90
8778;DHT22;4425;50.872;4.712;2023-08-31T05:00:18;12.50;99.90
8778;DHT22;4425;50.872;4.712;2023-08-31T05:02:45;12.40;99.90
8778;DHT22;4425;50.872;4.712;2023-08-31T05:05:12;12.40;99.90
8778;DHT22;4425;50.872;4.712;2023-08-31T05:07:40;12.50;99.90
8778;DHT22;4425;50.872;4.712;2023-08-31T05:10:09;12.40;99.90
8778;DHT22;4425;50.872;4.712;2023-08-31T05:12:36;12.40;99.90
8778;DHT22;4425;50.872;4.712;2023-08-31T05:15:03;12.40;99.90
8778;DHT22;4425;50.872;4.712;2023-08-31T05:17:30;12.40;99.90
8778;DHT22;4425;50.872;4.712;2023-08-31T05:19:57;12.50;99.90
8778;DHT22;4425;50.872;4.712;2023-08-31T05:22:24;12.60;99.90
8778;DHT22;4425;50.872;4.712;2023-08-31T05:24:52;12.60;99.90
8778;DHT22;4425;50.872;4.712;2023-08-31T05:27:19;12.50;99.90
8778;DHT22;4425;50.872;4.712;2023-08-31T05:29:46;12.50;99.90
8778;DHT22;4425;50.872;4.712;2023-08-31T05:32:13;12.60;99.90
8778;DHT22;4425;50.872;4.712;2023-08-31T05:34:40;12.60;99.90
8778;DHT22;4425;50.872;4.712;2023-08-31T05:37:07;12.60;99.90
8778;DHT22;4425;50.872;4.712;2023-08-31T05:39:34;12.60;99.90
8778;DHT22;4425;50.872;4.712;2023-08-31T05:42:02;12.70;99.90
8778;DHT22;4425;50.872;4.712;2023-08-31T05:44:29;12.70;99.90
8778;DHT22;4425;50.872;4.712;2023-08-31T05:46:56;12.70;99.90
8778;DHT22;4425;50.872;4.712;2023-08-31T05:49:23;12.80;99.90
8778;DHT22;4425;50.872;4.712;2023-08-31T05:51:49;12.80;99.90
8778;DHT22;4425;50.872;4.712;2023-08-31T05:54:17;12.80;99.90
8778;DHT22;4425;50.872;4.712;2023-08-31T05:56:44;12.90;99.90
8778;DHT22;4425;50.872;4.712;2023-08-31T05:59:13;12.90;99.90
8778;DHT22;4425;50.872;4.712;2023-08-31T06:01:40;12.90;99.90
8778;DHT22;4425;50.872;4.712;2023-08-31T06:04:07;13.00;99.90
8778;DHT22;4425;50.872;4.712;2023-08-31T06:06:34;13.10;99.90
8778;DHT22;4425;50.872;4.712;2023-08-31T06:09:02;13.10;99.90
8778;DHT22;4425;50.872;4.712;2023-08-31T06:11:29;13.20;99.90
8778;DHT22;4425;50.872;4.712;2023-08-31T06:13:56;13.20;99.90
8778;DHT22;4425;50.872;4.712;2023-08-31T06:16:24;13.20;99.90
8778;DHT22;4425;50.872;4.712;2023-08-31T06:18:51;13.40;99.90
8778;DHT22;4425;50.872;4.712;2023-08-31T06:21:18;13.50;99.90
8778;DHT22;4425;50.872;4.712;2023-08-31T06:23:45;13.60;99.90
8778;DHT22;4425;50.872;4.712;2023-08-31T06:26:12;13.60;99.90
8778;DHT22;4425;50.872;4.712;2023-08-31T06:28:39;13.70;99.90
8778;DHT22;4425;50.872;4.712;2023-08-31T06:31:06;13.70;99.90
8778;DHT22;4425;50.872;4.712;2023-08-31T06:33:34;13.70;99.90
8778;DHT22;4425;50.872;4.712;2023-08-31T06:36:01;13.80;99.90
8778;DHT22;4425;50.872;4.712;2023-08-31T06:38:28;13.90;99.90
8778;DHT22;4425;50.872;4.712;2023-08-31T06:40:54;14.10;99.90
8778;DHT22;4425;50.872;4.712;2023-08-31T06:43:24;14.70;99.90
8778;DHT22;4425;50.872;4.712;2023-08-31T06:45:52;15.40;99.90
8778;DHT22;4425;50.872;4.712;2023-08-31T06:48:19;16.10;99.90
8778;DHT22;4425;50.872;4.712;2023-08-31T06:50:48;17.00;99.90
8778;DHT22;4425;50.872;4.712;2023-08-31T06:53:15;18.20;99.90
8778;DHT22;4425;50.872;4.712;2023-08-31T06:55:42;19.30;99.90
8778;DHT22;4425;50.872;4.712;2023-08-31T06:58:08;20.20;99.90
8778;DHT22;4425;50.872;4.712;2023-08-31T07:00:35;20.50;99.90
8778;DHT22;4425;50.872;4.712;2023-08-31T07:03:02;20.80;99.90
8778;DHT22;4425;50.872;4.712;2023-08-31T07:05:33;21.10;99.90
8778;DHT22;4425;50.872;4.712;2023-08-31T07:08:02;21.50;99.90
8778;DHT22;4425;50.872;4.712;2023-08-31T07:10:29;21.40;99.90
8778;DHT22;4425;50.872;4.712;2023-08-31T07:12:56;21.90;99.90
8778;DHT22;4425;50.872;4.712;2023-08-31T07:15:23;22.60;99.90
8778;DHT22;4425;50.872;4.712;2023-08-31T07:17:50;22.90;99.90
8778;DHT22;4425;50.872;4.712;2023-08-31T07:20:17;23.50;99.90
8778;DHT22;4425;50.872;4.712;2023-08-31T07:22:44;23.70;99.90
8778;DHT22;4425;50.872;4.712;2023-08-31T07:25:12;24.40;99.90
8778;DHT22;4425;50.872;4.712;2023-08-31T07:27:39;25.10;99.90
8778;DHT22;4425;50.872;4.712;2023-08-31T07:30:06;25.40;99.90
8778;DHT22;4425;50.872;4.712;2023-08-31T07:32:33;24.90;99.90
8778;DHT22;4425;50.872;4.712;2023-08-31T07:35:00;24.60;99.90
8778;DHT22;4425;50.872;4.712;2023-08-31T07:37:30;25.00;99.90
8778;DHT22;4425;50.872;4.712;2023-08-31T07:39:57;25.30;99.90
8778;DHT22;4425;50.872;4.712;2023-08-31T07:42:25;25.60;99.90
8778;DHT22;4425;50.872;4.712;2023-08-31T07:44:52;25.50;99.90
8778;DHT22;4425;50.872;4.712;2023-08-31T07:47:19;26.00;99.90
8778;DHT22;4425;50.872;4.712;2023-08-31T07:49:46;26.30;99.90
8778;DHT22;4425;50.872;4.712;2023-08-31T07:52:13;25.60;99.90
8778;DHT22;4425;50.872;4.712;2023-08-31T07:54:39;25.40;99.90
8778;DHT22;4425;50.872;4.712;2023-08-31T07:57:06;25.50;99.90
8778;DHT22;4425;50.872;4.712;2023-08-31T07:59:35;25.60;99.90
8778;DHT22;4425;50.872;4.712;2023-08-31T08:02:05;25.50;99.90
8778;DHT22;4425;50.872;4.712;2023-08-31T08:04:32;25.90;99.90
8778;DHT22;4425;50.872;4.712;2023-08-31T08:06:59;26.20;99.90
8778;DHT22;4425;50.872;4.712;2023-08-31T08:09:25;26.90;99.90
8778;DHT22;4425;50.872;4.712;2023-08-31T08:11:52;26.70;99.90
8778;DHT22;4425;50.872;4.712;2023-08-31T08:14:19;26.90;99.90
8778;DHT22;4425;50.872;4.712;2023-08-31T08:16:47;26.50;99.90
8778;DHT22;4425;50.872;4.712;2023-08-31T08:19:21;26.30;99.90
8778;DHT22;4425;50.872;4.712;2023-08-31T08:21:48;26.00;99.90
8778;DHT22;4425;50.872;4.712;2023-08-31T08:24:14;25.90;99.90
8778;DHT22;4425;50.872;4.712;2023-08-31T08:26:41;26.10;99.90
8778;DHT22;4425;50.872;4.712;2023-08-31T08:29:08;26.80;99.90
8778;DHT22;4425;50.872;4.712;2023-08-31T08:31:35;26.90;99.90
8778;DHT22;4425;50.872;4.712;2023-08-31T08:34:03;26.40;99.90
8778;DHT22;4425;50.872;4.712;2023-08-31T08:36:31;26.00;99.90
8778;DHT22;4425;50.872;4.712;2023-08-31T08:38:58;26.00;99.90
8778;DHT22;4425;50.872;4.712;2023-08-31T08:41:26;25.50;99.90
8778;DHT22;4425;50.872;4.712;2023-08-31T08:43:57;25.60;99.90
8778;DHT22;4425;50.872;4.712;2023-08-31T08:46:30;25.80;99.90
8778;DHT22;4425;50.872;4.712;2023-08-31T08:48:58;25.30;99.90
8778;DHT22;4425;50.872;4.712;2023-08-31T08:51:28;25.00;99.90
8778;DHT22;4425;50.872;4.712;2023-08-31T08:53:56;25.20;99.90
8778;DHT22;4425;50.872;4.712;2023-08-31T08:56:25;24.70;99.90
8778;DHT22;4425;50.872;4.712;2023-08-31T08:58:52;23.70;99.90
8778;DHT22;4425;50.872;4.712;2023-08-31T09:01:19;22.20;99.90
8778;DHT22;4425;50.872;4.712;2023-08-31T09:03:48;21.30;99.90
8778;DHT22;4425;50.872;4.712;2023-08-31T09:06:15;20.50;99.90
8778;DHT22;4425;50.872;4.712;2023-08-31T09:08:43;20.00;99.90
8778;DHT22;4425;50.872;4.712;2023-08-31T09:11:19;19.80;99.90
8778;DHT22;4425;50.872;4.712;2023-08-31T09:13:48;19.60;99.90
8778;DHT22;4425;50.872;4.712;2023-08-31T09:16:23;19.50;99.90
8778;DHT22;4425;50.872;4.712;2023-08-31T09:18:51;19.50;99.90
8778;DHT22;4425;50.872;4.712;2023-08-31T09:21:18;19.40;99.90
8778;DHT22;4425;50.872;4.712;2023-08-31T09:23:47;19.50;99.90
8778;DHT22;4425;50.872;4.712;2023-08-31T09:26:14;19.30;99.90
8778;DHT22;4425;50.872;4.712;2023-08-31T09:28:41;19.40;99.90
8778;DHT22;4425;50.872;4.712;2023-08-31T09:31:09;19.30;99.90
8778;DHT22;4425;50.872;4.712;2023-08-31T09:33:36;19.30;99.90
8778;DHT22;4425;50.872;4.712;2023-08-31T09:36:06;19.10;99.90
8778;DHT22;4425;50.872;4.712;2023-08-31T09:38:41;19.10;99.90
8778;DHT22;4425;50.872;4.712;2023-08-31T09:41:10;19.10;99.90
8778;DHT22;4425;50.872;4.712;2023-08-31T09:43:37;19.30;99.90
8778;DHT22;4425;50.872;4.712;2023-08-31T09:46:04;19.30;99.90
8778;DHT22;4425;50.872;4.712;2023-08-31T09:48:32;19.60;99.90
8778;DHT22;4425;50.872;4.712;2023-08-31T09:51:02;19.80;99.90
8778;DHT22;4425;50.872;4.712;2023-08-31T09:53:31;19.90;99.90
8778;DHT22;4425;50.872;4.712;2023-08-31T09:55:58;20.20;99.90
8778;DHT22;4425;50.872;4.712;2023-08-31T09:58:28;20.20;99.90
8778;DHT22;4425;50.872;4.712;2023-08-31T10:00:56;20.40;99.90
8778;DHT22;4425;50.872;4.712;2023-08-31T10:03:25;20.40;99.90
8778;DHT22;4425;50.872;4.712;2023-08-31T10:05:54;20.20;99.90
8778;DHT22;4425;50.872;4.712;2023-08-31T10:08:22;20.10;99.90
8778;DHT22;4425;50.872;4.712;2023-08-31T10:10:52;20.10;99.90
8778;DHT22;4425;50.872;4.712;2023-08-31T10:13:21;20.40;99.90
8778;DHT22;4425;50.872;4.712;2023-08-31T10:15:49;20.60;99.90
8778;DHT22;4425;50.872;4.712;2023-08-31T10:18:17;20.60;99.90
8778;DHT22;4425;50.872;4.712;2023-08-31T10:20:44;20.60;99.90
8778;DHT22;4425;50.872;4.712;2023-08-31T10:23:12;20.70;99.90
8778;DHT22;4425;50.872;4.712;2023-08-31T10:26:00;20.60;99.90
8778;DHT22;4425;50.872;4.712;2023-08-31T10:28:27;20.60;99.90
8778;DHT22;4425;50.872;4.712;2023-08-31T10:31:02;20.70;99.90
8778;DHT22;4425;50.872;4.712;2023-08-31T10:33:31;20.70;99.90
8778;DHT22;4425;50.872;4.712;2023-08-31T10:35:59;21.00;99.90
8778;DHT22;4425;50.872;4.712;2023-08-31T10:38:27;21.20;99.90
8778;DHT22;4425;50.872;4.712;2023-08-31T10:43:46;21.40;99.90
8778;DHT22;4425;50.872;4.712;2023-08-31T10:46:30;21.70;99.90
8778;DHT22;4425;50.872;4.712;2023-08-31T10:48:59;22.00;99.90
8778;DHT22;4425;50.872;4.712;2023-08-31T10:51:28;22.10;99.90
8778;DHT22;4425;50.872;4.712;2023-08-31T10:54:09;22.10;99.90
8778;DHT22;4425;50.872;4.712;2023-08-31T10:57:01;21.90;99.90
8778;DHT22;4425;50.872;4.712;2023-08-31T10:59:47;21.70;99.90
8778;DHT22;4425;50.872;4.712;2023-08-31T11:02:34;21.60;99.90
8778;DHT22;4425;50.872;4.712;2023-08-31T11:05:04;21.40;99.90
8778;DHT22;4425;50.872;4.712;2023-08-31T11:07:32;21.10;99.90
8778;DHT22;4425;50.872;4.712;2023-08-31T11:10:09;21.30;99.90
8778;DHT22;4425;50.872;4.712;2023-08-31T11:12:36;21.50;99.90
8778;DHT22;4425;50.872;4.712;2023-08-31T11:15:04;21.50;99.90
8778;DHT22;4425;50.872;4.712;2023-08-31T11:17:32;21.20;99.90
8778;DHT22;4425;50.872;4.712;2023-08-31T11:20:00;21.00;99.90
8778;DHT22;4425;50.872;4.712;2023-08-31T11:22:31;20.90;99.90
8778;DHT22;4425;50.872;4.712;2023-08-31T11:24:59;20.90;99.90
8778;DHT22;4425;50.872;4.712;2023-08-31T11:27:26;21.00;99.90
8778;DHT22;4425;50.872;4.712;2023-08-31T11:29:53;21.30;99.90
8778;DHT22;4425;50.872;4.712;2023-08-31T11:32:23;21.50;99.90
8778;DHT22;4425;50.872;4.712;2023-08-31T11:34:51;21.30;99.90
8778;DHT22;4425;50.872;4.712;2023-08-31T11:37:19;21.40;99.90
8778;DHT22;4425;50.872;4.712;2023-08-31T11:39:50;21.40;99.90
8778;DHT22;4425;50.872;4.712;2023-08-31T11:42:18;21.50;99.90
8778;DHT22;4425;50.872;4.712;2023-08-31T11:44:46;21.70;99.90
8778;DHT22;4425;50.872;4.712;2023-08-31T11:47:14;21.90;99.90
8778;DHT22;4425;50.872;4.712;2023-08-31T11:49:42;21.90;99.90
8778;DHT22;4425;50.872;4.712;2023-08-31T11:52:11;22.00;99.90
8778;DHT22;4425;50.872;4.712;2023-08-31T11:54:42;21.90;99.90
8778;DHT22;4425;50.872;4.712;2023-08-31T11:57:09;21.90;99.90
8778;DHT22;4425;50.872;4.712;2023-08-31T11:59:37;21.70;99.90
8778;DHT22;4425;50.872;4.712;2023-08-31T12:02:06;21.40;99.90
8778;DHT22;4425;50.872;4.712;2023-08-31T12:04:33;21.40;99.90
8778;DHT22;4425;50.872;4.712;2023-08-31T12:07:08;21.50;99.90
8778;DHT22;4425;50.872;4.712;2023-08-31T12:09:36;21.60;99.90
8778;DHT22;4425;50.872;4.712;2023-08-31T12:12:04;21.50;99.90
8778;DHT22;4425;50.872;4.712;2023-08-31T12:14:31;21.60;99.90
8778;DHT22;4425;50.872;4.712;2023-08-31T12:17:03;21.60;99.90
8778;DHT22;4425;50.872;4.712;2023-08-31T12:19:30;21.60;99.90
8778;DHT22;4425;50.872;4.712;2023-08-31T12:21:58;21.60;99.90
8778;DHT22;4425;50.872;4.712;2023-08-31T12:24:25;21.50;99.90
8778;DHT22;4425;50.872;4.712;2023-08-31T12:26:54;21.60;99.90
8778;DHT22;4425;50.872;4.712;2023-08-31T12:29:21;21.50;99.90
8778;DHT22;4425;50.872;4.712;2023-08-31T12:31:48;21.40;99.90
8778;DHT22;4425;50.872;4.712;2023-08-31T12:34:15;21.40;99.90
8778;DHT22;4425;50.872;4.712;2023-08-31T12:36:42;21.40;99.90
8778;DHT22;4425;50.872;4.712;2023-08-31T12:39:09;21.30;99.90
8778;DHT22;4425;50.872;4.712;2023-08-31T12:41:37;21.10;99.90
8778;DHT22;4425;50.872;4.712;2023-08-31T12:44:06;20.80;99.90
8778;DHT22;4425;50.872;4.712;2023-08-31T12:46:33;20.80;99.90
8778;DHT22;4425;50.872;4.712;2023-08-31T12:49:01;20.60;99.90
8778;DHT22;4425;50.872;4.712;2023-08-31T12:51:29;20.50;99.90
8778;DHT22;4425;50.872;4.712;2023-08-31T12:53:56;20.30;99.90
8778;DHT22;4425;50.872;4.712;2023-08-31T12:56:23;20.30;99.90
8778;DHT22;4425;50.872;4.712;2023-08-31T12:58:51;20.40;99.90
8778;DHT22;4425;50.872;4.712;2023-08-31T13:01:21;20.40;99.90
8778;DHT22;4425;50.872;4.712;2023-08-31T13:03:49;20.40;99.90
8778;DHT22;4425;50.872;4.712;2023-08-31T13:06:18;20.40;99.90
8778;DHT22;4425;50.872;4.712;2023-08-31T13:08:45;20.30;99.90
8778;DHT22;4425;50.872;4.712;2023-08-31T13:11:12;20.50;99.90
8778;DHT22;4425;50.872;4.712;2023-08-31T13:13:40;20.70;99.90
8778;DHT22;4425;50.872;4.712;2023-08-31T13:16:07;20.90;99.90
8778;DHT22;4425;50.872;4.712;2023-08-31T13:18:35;20.90;99.90
8778;DHT22;4425;50.872;4.712;2023-08-31T13:21:02;20.90;99.90
8778;DHT22;4425;50.872;4.712;2023-08-31T13:23:29;20.80;99.90
8778;DHT22;4425;50.872;4.712;2023-08-31T13:25:56;20.90;99.90
8778;DHT22;4425;50.872;4.712;2023-08-31T13:28:23;20.80;99.90
8778;DHT22;4425;50.872;4.712;2023-08-31T13:30:50;20.90;99.90
8778;DHT22;4425;50.872;4.712;2023-08-31T13:33:21;21.30;99.90
8778;DHT22;4425;50.872;4.712;2023-08-31T13:35:50;21.60;99.90
8778;DHT22;4425;50.872;4.712;2023-08-31T13:38:17;21.80;99.90
8778;DHT22;4425;50.872;4.712;2023-08-31T13:40:44;22.10;99.90
8778;DHT22;4425;50.872;4.712;2023-08-31T13:43:11;22.20;99.90
8778;DHT22;4425;50.872;4.712;2023-08-31T13:45:37;22.30;99.90
8778;DHT22;4425;50.872;4.712;2023-08-31T13:48:05;22.30;99.90
8778;DHT22;4425;50.872;4.712;2023-08-31T13:50:32;22.30;99.90
8778;DHT22;4425;50.872;4.712;2023-08-31T13:53:00;22.20;99.90
8778;DHT22;4425;50.872;4.712;2023-08-31T13:55:27;22.10;99.90
8778;DHT22;4425;50.872;4.712;2023-08-31T13:57:54;21.90;99.90
8778;DHT22;4425;50.872;4.712;2023-08-31T14:00:21;21.90;99.90
8778;DHT22;4425;50.872;4.712;2023-08-31T14:02:48;21.90;99.90
8778;DHT22;4425;50.872;4.712;2023-08-31T14:05:14;21.90;99.90
8778;DHT22;4425;50.872;4.712;2023-08-31T14:07:41;21.80;99.90
8778;DHT22;4425;50.872;4.712;2023-08-31T14:10:10;21.50;99.90
8778;DHT22;4425;50.872;4.712;2023-08-31T14:12:37;21.30;99.90
8778;DHT22;4425;50.872;4.712;2023-08-31T14:15:05;21.30;99.90
8778;DHT22;4425;50.872;4.712;2023-08-31T14:17:32;21.40;99.90
8778;DHT22;4425;50.872;4.712;2023-08-31T14:19:59;21.50;99.90
8778;DHT22;4425;50.872;4.712;2023-08-31T14:22:31;21.50;99.90
8778;DHT22;4425;50.872;4.712;2023-08-31T14:24:58;21.40;99.90
8778;DHT22;4425;50.872;4.712;2023-08-31T14:27:27;21.30;99.90
8778;DHT22;4425;50.872;4.712;2023-08-31T14:29:56;21.30;99.90
8778;DHT22;4425;50.872;4.712;2023-08-31T14:32:23;21.20;99.90
8778;DHT22;4425;50.872;4.712;2023-08-31T14:34:49;21.20;99.90
8778;DHT22;4425;50.872;4.712;2023-08-31T14:37:16;21.00;99.90
8778;DHT22;4425;50.872;4.712;2023-08-31T14:39:43;21.00;99.90
8778;DHT22;4425;50.872;4.712;2023-08-31T14:42:10;20.90;99.90
8778;DHT22;4425;50.872;4.712;2023-08-31T14:44:39;20.80;99.90
8778;DHT22;4425;50.872;4.712;2023-08-31T14:47:05;20.90;99.90
8778;DHT22;4425;50.872;4.712;2023-08-31T14:49:32;21.00;99.90
8778;DHT22;4425;50.872;4.712;2023-08-31T14:52:00;21.00;99.90
8778;DHT22;4425;50.872;4.712;2023-08-31T14:54:30;21.00;99.90
8778;DHT22;4425;50.872;4.712;2023-08-31T14:56:58;20.90;99.90
8778;DHT22;4425;50.872;4.712;2023-08-31T14:59:24;20.80;99.90
8778;DHT22;4425;50.872;4.712;2023-08-31T15:01:53;20.70;99.90
8778;DHT22;4425;50.872;4.712;2023-08-31T15:04:20;20.70;99.90
8778;DHT22;4425;50.872;4.712;2023-08-31T15:06:47;20.70;99.90
8778;DHT22;4425;50.872;4.712;2023-08-31T15:09:14;20.60;99.90
8778;DHT22;4425;50.872;4.712;2023-08-31T15:11:41;20.70;99.90
8778;DHT22;4425;50.872;4.712;2023-08-31T15:14:10;20.70;99.90
8778;DHT22;4425;50.872;4.712;2023-08-31T15:16:37;20.80;99.90
8778;DHT22;4425;50.872;4.712;2023-08-31T15:19:06;20.70;99.90
8778;DHT22;4425;50.872;4.712;2023-08-31T15:21:33;20.70;99.90
8778;DHT22;4425;50.872;4.712;2023-08-31T15:24:00;20.70;99.90
8778;DHT22;4425;50.872;4.712;2023-08-31T15:26:28;20.70;99.90
8778;DHT22;4425;50.872;4.712;2023-08-31T15:28:55;20.70;99.90
8778;DHT22;4425;50.872;4.712;2023-08-31T15:31:22;20.60;99.90
8778;DHT22;4425;50.872;4.712;2023-08-31T15:33:49;20.50;99.90
8778;DHT22;4425;50.872;4.712;2023-08-31T15:36:17;20.40;99.90
8778;DHT22;4425;50.872;4.712;2023-08-31T15:38:44;20.40;99.90
8778;DHT22;4425;50.872;4.712;2023-08-31T15:41:13;20.50;99.90
8778;DHT22;4425;50.872;4.712;2023-08-31T15:43:40;20.40;99.90
8778;DHT22;4425;50.872;4.712;2023-08-31T15:46:08;20.30;99.90
8778;DHT22;4425;50.872;4.712;2023-08-31T15:48:35;20.10;99.90
8778;DHT22;4425;50.872;4.712;2023-08-31T15:51:03;20.00;99.90
8778;DHT22;4425;50.872;4.712;2023-08-31T15:53:31;20.00;99.90
8778;DHT22;4425;50.872;4.712;2023-08-31T15:55:58;19.90;99.90
8778;DHT22;4425;50.872;4.712;2023-08-31T15:58:25;19.90;99.90
8778;DHT22;4425;50.872;4.712;2023-08-31T16:00:55;19.90;99.90
8778;DHT22;4425;50.872;4.712;2023-08-31T16:03:27;19.90;99.90
8778;DHT22;4425;50.872;4.712;2023-08-31T16:05:56;19.90;99.90
8778;DHT22;4425;50.872;4.712;2023-08-31T16:08:24;19.80;99.90
8778;DHT22;4425;50.872;4.712;2023-08-31T16:10:52;19.70;99.90